This is the latest recevied weather packets stored in our database for station/object KC3QLX. If no packets are shown the sender has not sent any weather packets the latest 1 day(s).
| Time | Temp. | Humidity | Pressure | Rain* | Wind** | Luminosity | Snow |
|---|---|---|---|---|---|---|---|
| 1778030200 | 22.78° C | 47% | 1008.1 hPa | 0 mm | - | 0 W/m² | - |
| 1778029594 | 23.33° C | 47% | 1008 hPa | 0 mm | - | 0 W/m² | - |
| 1778028988 | 22.78° C | 48% | 1007.9 hPa | 0 mm | - | 0 W/m² | - |
| 1778028381 | 23.33° C | 47% | 1007.9 hPa | 0 mm | - | 0 W/m² | - |
| 1778027775 | 23.33° C | 47% | 1007.9 hPa | 0 mm | - | 0 W/m² | - |
| 1778027471 | 23.33° C | 47% | 1007.9 hPa | 0 mm | - | 0 W/m² | - |
| 1778027167 | 23.33° C | 47% | 1007.8 hPa | 0 mm | - | 0 W/m² | - |
| 1778025954 | 23.89° C | 47% | 1007.5 hPa | 0 mm | - | 0 W/m² | - |
| 1778024743 | 23.89° C | 45% | 1007.4 hPa | 0 mm | - | 7 W/m² | - |
| 1778024137 | 24.44° C | 45% | 1007.4 hPa | 0 mm | - | 13 W/m² | - |
| 1778023230 | 25° C | 43% | 1007.1 hPa | 0 mm | - | 25 W/m² | - |
| 1778022926 | 25° C | 42% | 1007.1 hPa | 0 mm | - | 35 W/m² | - |
| 1778018078 | 27.22° C | 36% | 1006.9 hPa | 0 mm | - | 213 W/m² | - |
| 1778017170 | 27.22° C | 35% | 1006.7 hPa | 0 mm | - | 260 W/m² | - |
| 1778016261 | 27.22° C | 37% | 1006.7 hPa | 0 mm | - | 127 W/m² | - |
| 1778015957 | 27.22° C | 37% | 1006.8 hPa | 0 mm | - | 262 W/m² | - |
| 1778015655 | 27.22° C | 37% | 1006.9 hPa | 0 mm | - | 301 W/m² | - |
| 1778014745 | 27.22° C | 37% | 1006.7 hPa | 0 mm | - | 209 W/m² | - |
| 1778012018 | 27.78° C | 35% | 1006.8 hPa | 0 mm | - | 478 W/m² | - |
| 1778010200 | 27.78° C | 36% | 1006.8 hPa | 0 mm | - | 337 W/m² | - |
| 1778009895 | 27.78° C | 36% | 1007 hPa | 0 mm | - | 304 W/m² | - |
| 1778006259 | 27.22° C | 37% | 1008 hPa | 0 mm | - | 745 W/m² | - |
| 1778004137 | 27.22° C | 44% | 1008.3 hPa | 0 mm | - | 694 W/m² | - |
| 1778003833 | 27.22° C | 41% | 1008 hPa | 0 mm | - | 681 W/m² | - |
| 1778002316 | 26.67° C | 42% | 1008.4 hPa | 0 mm | - | 283 W/m² | - |
* Rain latest hour (hover to see other rain measurements)
** Current wind speed in m/s (hover to see current wind gust speed)